Time;durP1;ratioP1;P1;durP2;ratioP2;P2;SDS_P1;SDS_P2;PMS_P1;PMS_P2;Temp;Humidity;BMP_temperature;BMP_pressure;BME280_temperature;BME280_humidity;BME280_pressure;Samples;Min_cycle;Max_cycle;Signal;HPM_P1;HPM_P2
2022/01/30 00:00:06;;;;;;;16.20;2.90;;;5.60;99.90;;;;;;4847640;29;20037;-72
2022/01/30 00:02:31;;;;;;;12.15;2.20;;;5.60;99.90;;;;;;4868297;29;20041;-73
2022/01/30 00:04:57;;;;;;;18.33;3.28;;;5.60;99.90;;;;;;4850363;29;20071;-73
2022/01/30 00:07:23;;;;;;;16.83;2.97;;;5.60;99.90;;;;;;4865581;29;20049;-72
2022/01/30 00:09:50;;;;;;;12.27;2.17;;;5.50;99.90;;;;;;4853187;29;20118;-71
2022/01/30 00:12:18;;;;;;;12.35;3.30;;;5.50;99.90;;;;;;4874927;29;20057;-74
2022/01/30 00:14:44;;;;;;;19.23;3.80;;;5.50;99.90;;;;;;4868268;29;20116;-74
2022/01/30 00:17:19;;;;;;;19.42;3.33;;;5.40;99.90;;;;;;4848255;29;20057;-73
2022/01/30 00:19:56;;;;;;;19.33;3.45;;;5.40;99.90;;;;;;4852096;29;20045;-70
2022/01/30 00:25:01;;;;;;;15.95;2.78;;;5.50;99.90;;;;;;4886408;29;20071;-71
2022/01/30 00:27:31;;;;;;;22.13;3.22;;;5.60;99.90;;;;;;4917741;29;20040;-72
2022/01/30 00:29:56;;;;;;;13.25;2.50;;;5.60;99.90;;;;;;4900537;29;20060;-75
2022/01/30 00:32:23;;;;;;;11.18;2.28;;;5.60;99.90;;;;;;4899808;29;20571;-73
2022/01/30 00:34:49;;;;;;;22.25;2.50;;;5.60;99.90;;;;;;4917149;29;20551;-72
2022/01/30 00:37:15;;;;;;;11.80;2.17;;;5.60;99.90;;;;;;4917217;29;20123;-73
2022/01/30 00:39:40;;;;;;;15.75;2.42;;;5.40;99.90;;;;;;4917137;29;20489;-71
2022/01/30 00:42:06;;;;;;;9.55;1.90;;;5.40;99.90;;;;;;4900312;29;20055;-71
2022/01/30 00:44:32;;;;;;;8.82;1.83;;;5.30;99.90;;;;;;4900203;29;20111;-73
2022/01/30 00:46:58;;;;;;;8.88;1.75;;;5.30;99.90;;;;;;4917929;29;20040;-71
2022/01/30 00:49:25;;;;;;;6.38;1.42;;;5.30;99.90;;;;;;4901555;29;20135;-70
2022/01/30 00:51:51;;;;;;;6.03;1.10;;;5.40;99.90;;;;;;4922594;29;20051;-71
2022/01/30 00:54:16;;;;;;;6.03;1.27;;;5.40;99.90;;;;;;4917648;29;20048;-69
2022/01/30 00:56:42;;;;;;;4.25;0.95;;;5.40;99.90;;;;;;4918765;29;20067;-70
2022/01/30 00:59:08;;;;;;;10.45;1.52;;;5.50;99.90;;;;;;4920675;29;20096;-73
2022/01/30 01:01:34;;;;;;;3.85;0.88;;;5.50;99.90;;;;;;4899421;29;20064;-73
2022/01/30 01:03:59;;;;;;;7.30;1.58;;;5.50;99.90;;;;;;4899327;29;20457;-72
2022/01/30 01:06:25;;;;;;;4.65;1.33;;;5.40;99.90;;;;;;4916506;29;20054;-72
2022/01/30 01:08:56;;;;;;;5.03;1.50;;;5.40;99.90;;;;;;4916069;29;20083;-72
2022/01/30 01:20:56;;;;;;;9.18;1.40;;;5.30;99.90;;;;;;4916434;29;20048;-72
2022/01/30 01:24:54;;;;;;;7.22;1.50;;;5.10;99.90;;;;;;4916089;29;20048;-74
2022/01/30 01:27:19;;;;;;;11.05;1.67;;;5.20;99.90;;;;;;4884164;29;20092;-72
2022/01/30 01:29:45;;;;;;;12.18;1.88;;;5.10;99.90;;;;;;4899393;29;20080;-72
2022/01/30 01:32:10;;;;;;;23.48;2.08;;;5.10;99.90;;;;;;4916280;29;20412;-72
2022/01/30 01:34:38;;;;;;;20.88;3.00;;;5.10;99.90;;;;;;4899149;29;20055;-72
2022/01/30 01:37:09;;;;;;;6.00;1.67;;;5.20;99.90;;;;;;4916058;29;20058;-74
2022/01/30 01:39:35;;;;;;;11.77;1.70;;;5.60;99.90;;;;;;4916061;29;20051;-73
2022/01/30 01:42:00;;;;;;;9.18;2.50;;;5.30;99.90;;;;;;4915979;29;20048;-73
2022/01/30 01:44:43;;;;;;;8.90;1.58;;;5.40;99.90;;;;;;4918815;29;20064;-73
2022/01/30 01:47:11;;;;;;;17.48;2.25;;;5.40;99.90;;;;;;4919871;29;20078;-73
2022/01/30 01:49:38;;;;;;;17.95;2.30;;;5.40;99.90;;;;;;4919834;29;20060;-73
2022/01/30 01:52:18;;;;;;;16.55;4.00;;;5.60;99.90;;;;;;4920207;29;20044;-71
2022/01/30 01:54:54;;;;;;;23.38;2.75;;;5.60;99.90;;;;;;4919845;29;20048;-71
2022/01/30 01:57:24;;;;;;;18.08;2.35;;;5.60;99.90;;;;;;4919642;29;20044;-72
2022/01/30 01:59:51;;;;;;;11.38;1.80;;;5.50;99.90;;;;;;4919946;29;20551;-71
2022/01/30 02:02:16;;;;;;;10.75;1.85;;;5.50;99.90;;;;;;4903047;29;20052;-71
2022/01/30 02:04:43;;;;;;;13.73;2.72;;;5.40;99.90;;;;;;4919671;29;20064;-72
2022/01/30 02:09:39;;;;;;;15.68;2.63;;;5.40;99.90;;;;;;4919771;29;20055;-72
2022/01/30 02:12:05;;;;;;;12.82;2.65;;;5.40;99.90;;;;;;4919150;29;20055;-72
2022/01/30 02:15:30;;;;;;;16.23;3.05;;;5.40;99.90;;;;;;4902718;29;20115;-73
2022/01/30 02:25:46;;;;;;;19.88;3.70;;;5.20;99.90;;;;;;4902446;29;20052;-73
2022/01/30 02:28:16;;;;;;;25.00;4.25;;;5.20;99.90;;;;;;4917184;29;20052;-72
2022/01/30 02:30:50;;;;;;;14.77;2.08;;;5.40;99.90;;;;;;4919545;29;20040;-71
2022/01/30 02:33:16;;;;;;;15.98;2.47;;;5.20;99.90;;;;;;4919154;29;20052;-73
2022/01/30 02:35:41;;;;;;;18.05;2.95;;;5.20;99.90;;;;;;4902107;29;20411;-72
2022/01/30 02:38:07;;;;;;;14.70;2.63;;;5.30;99.90;;;;;;4902306;29;20106;-72
2022/01/30 02:40:38;;;;;;;19.60;2.17;;;5.30;99.90;;;;;;4919035;29;20091;-73
2022/01/30 02:43:05;;;;;;;10.52;1.83;;;5.30;99.90;;;;;;4901775;29;20168;-71
2022/01/30 02:45:34;;;;;;;10.85;2.08;;;5.30;99.90;;;;;;4918595;29;20047;-72
2022/01/30 02:52:58;;;;;;;14.25;3.00;;;5.40;99.90;;;;;;4919043;29;20052;-73
2022/01/30 02:55:24;;;;;;;17.55;2.55;;;5.40;99.90;;;;;;4918721;29;20056;-72
2022/01/30 02:57:49;;;;;;;17.05;2.60;;;5.40;99.90;;;;;;4918815;29;20044;-73
2022/01/30 03:00:15;;;;;;;13.75;2.13;;;5.50;99.90;;;;;;4918178;29;20518;-74
2022/01/30 03:02:41;;;;;;;10.75;2.03;;;5.50;99.90;;;;;;4918826;29;20428;-73
2022/01/30 03:05:07;;;;;;;12.30;2.13;;;5.40;99.90;;;;;;4918682;29;20040;-73
2022/01/30 03:07:33;;;;;;;18.25;3.00;;;5.40;99.90;;;;;;4918736;29;20135;-72
2022/01/30 03:09:58;;;;;;;23.27;2.30;;;5.30;99.90;;;;;;4918852;29;20052;-72
2022/01/30 03:12:24;;;;;;;8.75;2.45;;;5.30;99.90;;;;;;4918707;29;20079;-72
2022/01/30 03:14:50;;;;;;;15.20;2.33;;;5.30;99.90;;;;;;4918025;29;20048;-74
2022/01/30 03:17:15;;;;;;;16.40;3.10;;;5.40;99.90;;;;;;4918356;29;20108;-72
2022/01/30 03:19:41;;;;;;;19.02;3.08;;;5.40;99.90;;;;;;4918501;29;20047;-73
2022/01/30 03:22:06;;;;;;;13.57;2.65;;;5.50;99.90;;;;;;4901431;29;20072;-73
2022/01/30 03:24:36;;;;;;;26.42;2.75;;;5.70;99.90;;;;;;4900879;29;20064;-73
2022/01/30 03:27:07;;;;;;;21.80;2.63;;;5.40;99.90;;;;;;4918523;29;20047;-73
2022/01/30 03:29:33;;;;;;;13.25;2.90;;;5.40;99.90;;;;;;4918268;29;20055;-73
2022/01/30 03:31:58;;;;;;;21.40;3.92;;;5.50;99.90;;;;;;4917939;29;20491;-74
2022/01/30 03:34:24;;;;;;;16.02;3.10;;;5.70;99.90;;;;;;4918359;29;20044;-73
2022/01/30 03:36:51;;;;;;;15.60;3.08;;;5.60;99.90;;;;;;4901286;29;20508;-74
2022/01/30 03:39:16;;;;;;;21.83;4.13;;;5.60;99.90;;;;;;4918652;29;20059;-72
2022/01/30 03:41:42;;;;;;;15.98;3.17;;;5.70;99.90;;;;;;4919549;29;20044;-73
2022/01/30 03:44:08;;;;;;;16.70;2.42;;;5.70;99.90;;;;;;4929921;29;20083;-72
2022/01/30 03:46:33;;;;;;;17.88;2.45;;;5.70;99.90;;;;;;4938380;29;20048;-73
2022/01/30 03:48:59;;;;;;;21.58;3.00;;;5.80;99.90;;;;;;4934226;29;20044;-73
2022/01/30 03:51:25;;;;;;;15.80;3.10;;;5.80;99.90;;;;;;4911286;29;20047;-73
2022/01/30 03:53:50;;;;;;;17.60;2.67;;;5.80;99.90;;;;;;4904738;29;20444;-74
2022/01/30 03:56:16;;;;;;;22.08;2.97;;;6.00;99.90;;;;;;4918036;29;20061;-74
2022/01/30 03:58:42;;;;;;;13.57;2.20;;;5.90;99.90;;;;;;4917911;29;20400;-73
2022/01/30 04:01:07;;;;;;;18.08;2.97;;;5.80;99.90;;;;;;4900856;29;20118;-73
2022/01/30 04:03:35;;;;;;;14.98;2.53;;;5.90;99.90;;;;;;4917192;29;20044;-72
2022/01/30 04:06:03;;;;;;;20.23;3.40;;;5.90;99.90;;;;;;4900065;29;20048;-73
2022/01/30 04:08:29;;;;;;;24.88;2.95;;;5.80;99.90;;;;;;4917706;29;20055;-72
2022/01/30 04:10:55;;;;;;;21.35;2.70;;;5.80;99.90;;;;;;4917765;29;20404;-72
2022/01/30 04:13:20;;;;;;;21.55;2.47;;;5.80;99.90;;;;;;4917771;29;20044;-73
2022/01/30 04:15:46;;;;;;;23.95;4.28;;;5.70;99.90;;;;;;4917421;29;20417;-73
2022/01/30 04:18:12;;;;;;;16.67;2.63;;;5.70;99.90;;;;;;4917428;29;20047;-73
2022/01/30 04:20:38;;;;;;;16.17;2.65;;;5.70;99.90;;;;;;4917105;29;20408;-72
2022/01/30 04:23:04;;;;;;;28.00;3.47;;;5.70;99.90;;;;;;4917184;29;20048;-73
2022/01/30 04:25:30;;;;;;;18.75;2.92;;;5.60;99.90;;;;;;4916429;29;20052;-73
2022/01/30 04:27:56;;;;;;;12.70;2.80;;;6.20;99.90;;;;;;4917778;29;20454;-73
2022/01/30 04:30:22;;;;;;;22.77;3.83;;;5.70;99.90;;;;;;4917831;29;20089;-73
2022/01/30 04:32:48;;;;;;;17.67;3.38;;;5.80;99.90;;;;;;4917210;29;20048;-73
2022/01/30 04:35:21;;;;;;;16.25;3.53;;;5.80;99.90;;;;;;4916618;29;20102;-73
2022/01/30 04:38:11;;;;;;;32.53;3.63;;;5.80;99.90;;;;;;4916726;29;20055;-72
2022/01/30 04:59:43;;;;;;;17.52;2.97;;;6.10;99.90;;;;;;4899772;29;20074;-72
2022/01/30 05:02:11;;;;;;;23.73;3.88;;;6.60;99.90;;;;;;4899699;29;20074;-73
2022/01/30 05:05:05;;;;;;;19.63;3.63;;;6.40;99.90;;;;;;4916693;29;20044;-73
2022/01/30 05:07:34;;;;;;;19.33;3.20;;;5.90;99.90;;;;;;4916162;29;20059;-72
2022/01/30 05:10:00;;;;;;;15.43;3.20;;;5.80;99.90;;;;;;4916761;29;20040;-75
2022/01/30 05:12:32;;;;;;;15.13;2.65;;;5.80;99.90;;;;;;4916723;29;20076;-72
2022/01/30 05:14:58;;;;;;;22.38;3.17;;;5.80;99.90;;;;;;4916361;29;20052;-74
2022/01/30 05:17:24;;;;;;;18.02;3.17;;;5.70;99.90;;;;;;4916500;29;20067;-73
2022/01/30 05:19:50;;;;;;;20.95;3.55;;;5.70;99.90;;;;;;4916245;29;20484;-72
2022/01/30 05:22:17;;;;;;;18.63;3.00;;;5.60;99.90;;;;;;4916149;29;20452;-73
2022/01/30 05:24:43;;;;;;;21.05;3.80;;;5.60;99.90;;;;;;4916346;29;20048;-73
2022/01/30 05:27:09;;;;;;;21.27;3.97;;;5.60;99.90;;;;;;4916472;29;20123;-73
2022/01/30 05:29:36;;;;;;;21.60;4.05;;;5.50;99.90;;;;;;4916427;29;20070;-72
2022/01/30 05:32:01;;;;;;;21.25;3.03;;;5.50;99.90;;;;;;4916421;29;20281;-73
2022/01/30 05:34:28;;;;;;;21.23;4.55;;;5.50;99.90;;;;;;4916212;29;20127;-71
2022/01/30 05:36:57;;;;;;;25.15;3.63;;;5.50;99.90;;;;;;4916514;29;20597;-72
2022/01/30 05:39:23;;;;;;;19.80;3.45;;;5.50;99.90;;;;;;4916052;29;20055;-72
2022/01/30 05:41:49;;;;;;;20.67;4.13;;;5.50;99.90;;;;;;4916300;29;20412;-75
2022/01/30 05:44:20;;;;;;;19.23;4.18;;;5.50;99.90;;;;;;4916370;29;20135;-72
2022/01/30 05:46:53;;;;;;;17.20;2.67;;;5.40;99.90;;;;;;4899139;29;20099;-74
2022/01/30 05:49:20;;;;;;;14.88;3.30;;;5.40;99.90;;;;;;4916039;29;20060;-73
2022/01/30 05:51:46;;;;;;;21.63;4.05;;;5.40;99.90;;;;;;4916300;29;20051;-72
2022/01/30 05:54:11;;;;;;;24.23;3.42;;;5.40;99.90;;;;;;4898883;29;20572;-71
2022/01/30 05:56:37;;;;;;;16.23;2.50;;;5.30;99.90;;;;;;4916020;29;20136;-73
2022/01/30 05:59:03;;;;;;;14.10;2.22;;;5.70;99.90;;;;;;4899121;29;20044;-72
2022/01/30 06:01:30;;;;;;;21.25;3.28;;;5.10;99.90;;;;;;4916110;29;20092;-72
2022/01/30 06:03:55;;;;;;;17.60;2.60;;;5.30;99.90;;;;;;4915894;29;20082;-72
2022/01/30 06:06:21;;;;;;;26.05;4.05;;;5.10;99.90;;;;;;4916306;29;20127;-72
2022/01/30 06:08:59;;;;;;;15.80;3.20;;;5.30;99.90;;;;;;4899073;29;20044;-71
2022/01/30 06:11:25;;;;;;;21.77;5.28;;;5.20;99.90;;;;;;4915833;29;20056;-72
2022/01/30 06:13:50;;;;;;;20.55;4.25;;;4.80;99.90;;;;;;4915986;29;20461;-72
2022/01/30 06:16:16;;;;;;;16.48;4.05;;;4.80;99.90;;;;;;4915632;29;20044;-71
2022/01/30 06:18:43;;;;;;;20.38;3.67;;;4.80;99.90;;;;;;4915971;29;20079;-71
2022/01/30 06:21:09;;;;;;;25.27;3.78;;;4.80;99.90;;;;;;4916032;29;20055;-72
2022/01/30 06:23:36;;;;;;;22.88;4.43;;;4.80;99.90;;;;;;4915952;29;20040;-72
2022/01/30 06:26:03;;;;;;;18.70;4.10;;;5.20;99.90;;;;;;4915416;29;20052;-71
2022/01/30 06:28:28;;;;;;;21.05;4.07;;;4.70;99.90;;;;;;4915802;29;20051;-72
2022/01/30 06:30:54;;;;;;;25.58;3.45;;;4.70;99.90;;;;;;4918609;29;20513;-72
2022/01/30 06:33:20;;;;;;;19.40;3.17;;;4.60;99.90;;;;;;4902565;29;20052;-73
2022/01/30 06:35:46;;;;;;;24.25;3.22;;;4.60;99.90;;;;;;4918957;29;20063;-71
2022/01/30 06:38:12;;;;;;;16.17;3.45;;;4.70;99.90;;;;;;4919292;29;20048;-72
2022/01/30 06:40:38;;;;;;;26.33;4.03;;;4.70;99.90;;;;;;4919203;29;20082;-72
2022/01/30 06:43:03;;;;;;;13.60;3.03;;;4.70;99.90;;;;;;4901401;29;20107;-72
2022/01/30 06:45:29;;;;;;;19.75;3.70;;;4.70;99.90;;;;;;4918874;29;20040;-73
2022/01/30 06:47:55;;;;;;;25.38;4.70;;;4.80;99.90;;;;;;4918822;29;20480;-72
2022/01/30 06:50:21;;;;;;;22.35;4.05;;;4.80;99.90;;;;;;4901872;29;20429;-71
2022/01/30 06:52:47;;;;;;;20.50;3.22;;;4.90;99.90;;;;;;4918970;29;20047;-73
2022/01/30 06:55:13;;;;;;;17.88;3.35;;;5.00;99.90;;;;;;4918990;29;20087;-72
2022/01/30 06:57:43;;;;;;;21.58;4.07;;;5.00;99.90;;;;;;4918365;29;20059;-71
2022/01/30 07:00:09;;;;;;;24.83;4.63;;;5.10;99.90;;;;;;4918669;29;20445;-73
2022/01/30 07:02:35;;;;;;;31.77;5.88;;;5.00;99.90;;;;;;4918607;29;20052;-72
2022/01/30 07:05:01;;;;;;;26.17;5.22;;;5.00;99.90;;;;;;4902086;29;20396;-73
2022/01/30 07:07:26;;;;;;;27.10;4.70;;;5.00;99.90;;;;;;4919019;29;20052;-72
2022/01/30 07:09:52;;;;;;;30.30;4.25;;;5.10;99.90;;;;;;4918591;29;20048;-73
2022/01/30 07:12:17;;;;;;;25.02;5.13;;;5.10;99.90;;;;;;4901482;29;20131;-73
2022/01/30 07:14:43;;;;;;;32.85;4.57;;;5.10;99.90;;;;;;4918233;29;20405;-72
2022/01/30 07:17:09;;;;;;;25.27;4.93;;;5.20;99.90;;;;;;4918427;29;20040;-74
2022/01/30 07:19:34;;;;;;;24.08;4.40;;;5.20;99.90;;;;;;4901579;29;20184;-72
2022/01/30 07:22:00;;;;;;;16.60;3.15;;;5.20;99.90;;;;;;4918543;29;20514;-72
2022/01/30 07:24:26;;;;;;;19.90;4.70;;;5.10;99.90;;;;;;4918675;29;20040;-73
2022/01/30 07:26:51;;;;;;;25.25;4.57;;;5.10;99.90;;;;;;4918292;29;20408;-72
2022/01/30 07:29:17;;;;;;;16.25;3.20;;;5.10;99.90;;;;;;4901051;29;20404;-71
2022/01/30 07:31:43;;;;;;;22.08;3.67;;;5.10;99.90;;;;;;4918414;29;20151;-72
2022/01/30 07:34:08;;;;;;;18.00;3.95;;;5.20;99.90;;;;;;4923179;29;20099;-73
2022/01/30 07:36:36;;;;;;;19.85;3.60;;;5.10;99.90;;;;;;4939700;29;20095;-72
2022/01/30 07:39:06;;;;;;;24.40;4.18;;;5.20;99.90;;;;;;4936472;29;20048;-74
2022/01/30 07:41:32;;;;;;;23.63;3.83;;;5.20;99.90;;;;;;4918121;29;20056;-73
2022/01/30 07:44:00;;;;;;;21.48;3.63;;;5.70;99.90;;;;;;4918695;29;20044;-72
2022/01/30 07:47:00;;;;;;;23.13;3.28;;;5.20;99.90;;;;;;4917975;29;20373;-73
2022/01/30 07:49:25;;;;;;;22.27;4.32;;;5.10;99.90;;;;;;4917930;29;20147;-72
2022/01/30 07:51:51;;;;;;;18.63;3.28;;;5.10;99.90;;;;;;4918172;29;20072;-74
2022/01/30 07:54:17;;;;;;;24.33;3.83;;;5.20;99.90;;;;;;4917801;29;20059;-72
2022/01/30 07:56:42;;;;;;;19.10;4.10;;;5.20;99.90;;;;;;4917964;29;20047;-74
2022/01/30 07:59:08;;;;;;;20.70;3.38;;;5.30;99.90;;;;;;4917792;29;20106;-72
2022/01/30 08:01:34;;;;;;;23.27;3.38;;;5.80;99.90;;;;;;4917077;29;20052;-73
2022/01/30 08:04:00;;;;;;;25.92;4.53;;;5.30;99.90;;;;;;4917967;29;20052;-73
2022/01/30 08:06:26;;;;;;;23.63;3.45;;;5.40;99.90;;;;;;4917906;29;20083;-72
2022/01/30 08:08:52;;;;;;;21.50;3.72;;;5.40;99.90;;;;;;4917741;29;20093;-73
2022/01/30 08:11:18;;;;;;;22.58;3.63;;;5.40;99.90;;;;;;4917596;29;20524;-73
2022/01/30 08:13:44;;;;;;;23.20;4.00;;;5.50;99.90;;;;;;4900825;29;20172;-74
2022/01/30 08:16:09;;;;;;;27.45;3.70;;;5.60;99.90;;;;;;4916876;29;20405;-73
2022/01/30 08:18:37;;;;;;;20.65;4.45;;;5.80;99.90;;;;;;4917279;29;20138;-73
2022/01/30 08:21:04;;;;;;;27.20;4.90;;;5.40;99.90;;;;;;4917545;29;20050;-73
2022/01/30 08:23:32;;;;;;;16.15;3.25;;;5.50;99.90;;;;;;4917363;29;20508;-73
2022/01/30 08:25:58;;;;;;;26.45;4.88;;;5.40;99.90;;;;;;4917574;29;20122;-74
2022/01/30 08:28:24;;;;;;;26.85;3.90;;;5.50;99.90;;;;;;4917299;29;20180;-73
2022/01/30 08:30:51;;;;;;;20.45;3.90;;;5.50;99.90;;;;;;4917022;29;20048;-74
2022/01/30 08:33:17;;;;;;;23.33;4.60;;;5.90;99.90;;;;;;4916891;29;20377;-73
2022/01/30 08:35:43;;;;;;;29.60;4.38;;;5.40;99.90;;;;;;4917172;29;20492;-74
2022/01/30 08:38:10;;;;;;;27.40;4.20;;;5.40;99.90;;;;;;4916781;29;20087;-73
2022/01/30 08:40:36;;;;;;;22.40;4.38;;;5.50;99.90;;;;;;4917006;29;20080;-72
2022/01/30 08:43:02;;;;;;;34.25;7.78;;;5.50;99.90;;;;;;4916984;29;20468;-73
2022/01/30 08:45:28;;;;;;;23.85;5.20;;;5.60;99.90;;;;;;4899660;29;20079;-72
2022/01/30 08:47:54;;;;;;;33.60;6.45;;;5.70;99.90;;;;;;4916650;29;20440;-73
2022/01/30 08:50:21;;;;;;;36.60;5.28;;;5.70;99.90;;;;;;4916372;29;20440;-73
2022/01/30 08:52:48;;;;;;;30.42;5.38;;;5.90;99.90;;;;;;4916532;29;20449;-72
2022/01/30 08:55:15;;;;;;;24.55;5.57;;;5.90;99.90;;;;;;4916735;29;20044;-73
2022/01/30 08:57:41;;;;;;;34.92;7.63;;;5.60;99.90;;;;;;4916772;29;20048;-73
2022/01/30 09:00:10;;;;;;;26.63;5.15;;;5.60;99.90;;;;;;4916584;29;20052;-71
2022/01/30 09:02:36;;;;;;;21.25;4.38;;;5.50;99.90;;;;;;4916926;29;20055;-74
2022/01/30 09:05:02;;;;;;;27.33;4.70;;;5.50;99.90;;;;;;4898770;29;20066;-74
2022/01/30 09:07:28;;;;;;;32.03;5.15;;;5.60;99.90;;;;;;4916865;29;20108;-73
2022/01/30 09:09:54;;;;;;;25.38;4.80;;;6.30;99.90;;;;;;4899221;29;20505;-73
2022/01/30 09:12:19;;;;;;;26.73;4.00;;;5.60;99.90;;;;;;4916470;29;20036;-71
2022/01/30 09:14:45;;;;;;;26.52;4.53;;;5.70;99.90;;;;;;4916390;29;20079;-72
2022/01/30 09:17:16;;;;;;;27.77;5.15;;;5.70;99.90;;;;;;4899163;29;20052;-72
2022/01/30 09:19:43;;;;;;;31.13;4.93;;;5.70;99.90;;;;;;4916133;29;20044;-73
2022/01/30 09:22:11;;;;;;;23.90;3.78;;;5.70;99.90;;;;;;4916396;29;20083;-73
2022/01/30 09:24:37;;;;;;;20.95;4.40;;;5.80;99.90;;;;;;4899324;29;20048;-71
2022/01/30 09:27:06;;;;;;;23.65;4.50;;;5.80;99.90;;;;;;4920353;29;20048;-72
2022/01/30 09:29:32;;;;;;;23.90;4.30;;;5.80;99.90;;;;;;4915079;29;20407;-71
2022/01/30 09:31:59;;;;;;;31.08;5.47;;;5.90;99.90;;;;;;4925681;29;20418;-72
2022/01/30 09:34:25;;;;;;;29.10;5.40;;;5.90;99.90;;;;;;4923866;29;20044;-75
2022/01/30 09:36:51;;;;;;;27.33;5.90;;;5.90;99.90;;;;;;4924022;29;20060;-75
2022/01/30 09:39:17;;;;;;;35.63;4.85;;;5.90;99.90;;;;;;4925346;29;20048;-73
2022/01/30 09:41:44;;;;;;;24.70;4.85;;;6.00;99.90;;;;;;4923362;29;20051;-73
2022/01/30 09:44:10;;;;;;;22.90;5.50;;;6.00;99.90;;;;;;4915637;29;20408;-76
2022/01/30 09:46:42;;;;;;;27.23;5.18;;;6.40;99.90;;;;;;4925051;29;20048;-73
2022/01/30 09:49:10;;;;;;;26.10;4.43;;;6.20;99.90;;;;;;4923791;29;20087;-72
2022/01/30 09:51:37;;;;;;;26.58;6.78;;;6.20;99.90;;;;;;4923477;29;20047;-72
2022/01/30 09:54:04;;;;;;;27.63;5.70;;;6.30;99.90;;;;;;4923612;29;20110;-70
2022/01/30 09:56:30;;;;;;;27.85;6.40;;;6.30;99.90;;;;;;4925682;29;20052;-72
2022/01/30 09:58:56;;;;;;;32.60;5.03;;;6.80;99.90;;;;;;4925176;29;20119;-74
2022/01/30 10:01:22;;;;;;;22.80;5.03;;;6.30;99.90;;;;;;4925963;29;20048;-72
2022/01/30 10:03:48;;;;;;;32.20;6.70;;;6.30;99.90;;;;;;4923977;29;20488;-72
2022/01/30 10:06:21;;;;;;;25.02;5.07;;;6.30;99.90;;;;;;4931863;29;20047;-72
2022/01/30 10:08:52;;;;;;;25.25;4.75;;;6.30;99.90;;;;;;4931102;29;20046;-77
2022/01/30 10:11:31;;;;;;;25.53;5.40;;;6.30;99.90;;;;;;4923371;29;20102;-75
2022/01/30 10:14:11;;;;;;;21.85;4.95;;;6.40;99.90;;;;;;4923723;29;20284;-72
2022/01/30 10:16:44;;;;;;;31.52;5.50;;;6.30;99.90;;;;;;4927102;29;20083;-72
2022/01/30 10:19:21;;;;;;;23.13;4.07;;;6.90;99.90;;;;;;4927862;29;20048;-74
2022/01/30 10:22:03;;;;;;;30.17;4.90;;;6.40;99.90;;;;;;4938358;29;20063;-72
2022/01/30 10:24:29;;;;;;;28.52;5.22;;;6.60;99.90;;;;;;4934086;29;20412;-72
2022/01/30 10:26:59;;;;;;;35.60;4.75;;;6.50;99.90;;;;;;4918850;29;20059;-73
2022/01/30 10:29:32;;;;;;;30.45;5.70;;;6.50;99.90;;;;;;4924191;29;20044;-73
2022/01/30 10:31:59;;;;;;;27.60;6.32;;;6.60;99.90;;;;;;4930416;29;20098;-72
2022/01/30 10:34:26;;;;;;;22.80;4.53;;;6.60;99.90;;;;;;4911059;29;20220;-71
2022/01/30 10:37:22;;;;;;;27.52;5.43;;;6.60;99.90;;;;;;4931337;29;20111;-74
2022/01/30 10:39:52;;;;;;;22.63;4.30;;;6.60;99.90;;;;;;4936915;29;20464;-73
2022/01/30 10:42:45;;;;;;;29.80;6.38;;;6.60;99.90;;;;;;4934013;29;20070;-72
2022/01/30 10:45:15;;;;;;;;;;;6.70;99.90;;;;;;4917199;29;20416;-72
2022/01/30 10:47:43;;;;;;;35.50;5.22;;;6.70;99.90;;;;;;4937470;29;19922;-74
2022/01/30 10:50:29;;;;;;;29.33;5.10;;;6.70;99.90;;;;;;4936577;29;20055;-73
2022/01/30 10:52:59;;;;;;;35.92;5.22;;;6.80;99.90;;;;;;4936759;29;20066;-72
2022/01/30 10:55:43;;;;;;;23.10;4.65;;;7.40;99.90;;;;;;4936680;29;20043;-73
2022/01/30 10:58:15;;;;;;;26.05;4.63;;;7.40;99.90;;;;;;4931479;29;20040;-75
2022/01/30 11:00:43;;;;;;;27.08;4.22;;;7.00;99.90;;;;;;4916723;29;20044;-73
2022/01/30 11:03:10;;;;;;;31.00;7.03;;;7.00;99.90;;;;;;4917923;29;20440;-73
2022/01/30 11:05:53;;;;;;;32.03;5.07;;;6.90;99.90;;;;;;4917598;29;20098;-72
2022/01/30 11:08:26;;;;;;;35.33;7.07;;;6.90;99.90;;;;;;4932827;29;20086;-72
2022/01/30 11:11:02;;;;;;;30.08;5.00;;;6.80;99.90;;;;;;4936491;29;20135;-74
2022/01/30 11:13:32;;;;;;;29.80;4.28;;;6.80;99.90;;;;;;4929878;29;20500;-73
2022/01/30 11:16:56;;;;;;;19.55;5.68;;;7.10;99.90;;;;;;4930344;29;20052;-73
2022/01/30 11:18:50;;;;;;;27.30;5.63;;;6.70;99.90;;;;;;4926614;29;20134;-70
2022/01/30 11:21:24;;;;;;;26.85;4.03;;;7.10;99.90;;;;;;4926934;29;20066;-72
2022/01/30 11:23:52;;;;;;;20.88;3.50;;;6.90;99.90;;;;;;4924968;29;20047;-72
2022/01/30 11:26:19;;;;;;;19.80;3.65;;;6.80;99.90;;;;;;4924627;29;20742;-71
2022/01/30 11:28:48;;;;;;;25.80;4.90;;;6.80;99.90;;;;;;4925989;29;20054;-73
2022/01/30 11:31:16;;;;;;;22.27;4.38;;;6.70;99.90;;;;;;4927540;29;20047;-73
2022/01/30 11:33:44;;;;;;;21.45;4.05;;;6.90;99.90;;;;;;4938283;29;20044;-74
2022/01/30 11:36:10;;;;;;;27.55;4.40;;;7.00;99.90;;;;;;4935871;29;20032;-72
2022/01/30 11:38:37;;;;;;;21.10;3.85;;;7.00;99.90;;;;;;4943584;29;20023;-77
2022/01/30 11:41:19;;;;;;;20.60;3.45;;;7.10;99.90;;;;;;4937431;29;20052;-73
2022/01/30 11:44:19;;;;;;;24.42;4.03;;;7.10;99.90;;;;;;4928341;29;20071;-73
2022/01/30 11:46:58;;;;;;;27.95;3.67;;;7.10;99.90;;;;;;4917578;29;20133;-70
2022/01/30 11:49:40;;;;;;;28.00;4.90;;;7.20;99.90;;;;;;4916757;29;20129;-73
2022/01/30 11:52:09;;;;;;;;;;;7.30;99.90;;;;;;4918501;29;20135;-72
2022/01/30 11:54:50;;;;;;;28.67;3.97;;;7.40;99.90;;;;;;4916578;29;19923;-72
2022/01/30 11:57:21;;;;;;;22.67;3.95;;;7.40;99.90;;;;;;4918026;29;20128;-72
2022/01/30 11:59:51;;;;;;;31.50;5.70;;;7.40;99.90;;;;;;4916450;29;20404;-71
2022/01/30 12:02:31;;;;;;;20.67;4.18;;;7.40;99.90;;;;;;4917926;29;20044;-73
2022/01/30 12:05:02;;;;;;;20.55;4.03;;;7.30;99.90;;;;;;4917728;29;20044;-74
2022/01/30 12:07:40;;;;;;;24.27;4.32;;;7.10;99.90;;;;;;4916992;29;20389;-74
2022/01/30 12:10:27;;;;;;;26.05;6.07;;;7.40;99.90;;;;;;4916116;29;20144;-73
2022/01/30 12:12:56;;;;;;;27.42;4.93;;;7.50;99.90;;;;;;4917736;29;20444;-72
2022/01/30 12:15:42;;;;;;;22.20;5.28;;;7.00;99.90;;;;;;4916924;29;20134;-73
2022/01/30 12:18:15;;;;;;;20.63;4.65;;;7.10;99.90;;;;;;4917791;29;20048;-72
2022/01/30 12:21:01;;;;;;;22.30;5.22;;;7.10;99.90;;;;;;4917483;29;20047;-73
2022/01/30 12:23:32;;;;;;;19.23;3.58;;;7.20;99.90;;;;;;4916430;29;20052;-73
2022/01/30 12:26:10;;;;;;;28.88;5.63;;;7.20;99.90;;;;;;4917577;29;20396;-73
2022/01/30 12:28:45;;;;;;;29.83;4.75;;;7.20;99.90;;;;;;4915732;29;20059;-73
2022/01/30 12:31:33;;;;;;;31.15;4.28;;;7.30;99.90;;;;;;4916934;29;20052;-73
2022/01/30 12:34:03;;;;;;;33.78;4.53;;;7.30;99.90;;;;;;4917311;29;20079;-73
2022/01/30 12:36:31;;;;;;;23.73;3.83;;;7.30;99.90;;;;;;4915481;29;20138;-73
2022/01/30 12:39:24;;;;;;;24.80;4.07;;;7.30;99.90;;;;;;4915836;29;20139;-73
2022/01/30 12:41:51;;;;;;;26.08;4.88;;;7.20;99.90;;;;;;4917329;29;20412;-72
2022/01/30 12:44:28;;;;;;;23.33;4.95;;;7.20;99.90;;;;;;4917224;29;20398;-72
2022/01/30 12:46:54;;;;;;;28.40;5.38;;;7.10;99.90;;;;;;4916578;29;20658;-73
2022/01/30 12:49:25;;;;;;;24.20;4.88;;;7.00;99.90;;;;;;4916427;29;20091;-73
2022/01/30 12:51:53;;;;;;;27.95;4.45;;;6.90;99.90;;;;;;4916904;29;20051;-73
2022/01/30 12:54:22;;;;;;;21.42;4.82;;;6.70;99.90;;;;;;4916966;29;20051;-72
2022/01/30 12:56:49;;;;;;;24.75;3.65;;;6.60;99.90;;;;;;4916897;29;20135;-71
2022/01/30 12:59:16;;;;;;;28.92;5.47;;;6.50;99.90;;;;;;4916802;29;20611;-72
2022/01/30 13:01:44;;;;;;;23.75;4.20;;;6.50;99.90;;;;;;4915139;29;20131;-72
2022/01/30 13:04:23;;;;;;;18.73;4.20;;;6.90;99.90;;;;;;4916571;29;20052;-70
2022/01/30 13:06:52;;;;;;;20.08;4.68;;;6.60;99.90;;;;;;4916967;29;20080;-72
2022/01/30 13:09:25;;;;;;;24.05;4.63;;;6.70;99.90;;;;;;4916592;29;20056;-72
2022/01/30 13:11:55;;;;;;;23.73;3.80;;;6.90;99.90;;;;;;4916662;29;20052;-71
2022/01/30 13:14:21;;;;;;;17.58;4.47;;;6.90;99.90;;;;;;4915555;29;20080;-71
2022/01/30 13:16:51;;;;;;;27.67;3.97;;;7.30;99.90;;;;;;4916580;29;20040;-71
2022/01/30 13:19:36;;;;;;;19.67;3.60;;;7.00;99.90;;;;;;4916250;29;20052;-72
2022/01/30 13:22:04;;;;;;;20.83;3.33;;;7.20;99.90;;;;;;4916691;29;20051;-72
2022/01/30 13:24:30;;;;;;;27.35;5.32;;;7.30;99.90;;;;;;4916623;29;20099;-72
2022/01/30 13:27:06;;;;;;;17.33;4.35;;;7.40;99.90;;;;;;4915071;29;20501;-73
2022/01/30 13:29:36;;;;;;;19.45;3.80;;;7.60;99.90;;;;;;4916745;29;20052;-73
2022/01/30 13:32:10;;;;;;;24.70;4.32;;;7.60;99.90;;;;;;4915193;29;20591;-73
2022/01/30 13:34:37;;;;;;;21.40;4.60;;;7.60;99.90;;;;;;4914357;29;20095;-73
2022/01/30 13:37:06;;;;;;;23.13;4.30;;;7.50;99.90;;;;;;4916197;29;20457;-72
2022/01/30 13:39:38;;;;;;;19.58;3.55;;;7.30;99.90;;;;;;4917634;29;20044;-72
2022/01/30 13:42:29;;;;;;;19.85;3.08;;;7.10;99.90;;;;;;4920563;29;20392;-69
2022/01/30 13:46:55;;;;;;;20.95;3.85;;;6.90;99.90;;;;;;4919473;29;20067;-71